createdAt,value
2019-04-14T00:03:31.142Z,101481
2019-04-14T00:08:54.303Z,101478
2019-04-14T00:14:16.579Z,101472
2019-04-14T00:19:39.353Z,101472
2019-04-14T00:25:02.657Z,101470
2019-04-14T00:30:25.369Z,101464
2019-04-14T00:35:48.086Z,101457
2019-04-14T00:41:11.569Z,101454
2019-04-14T00:46:34.300Z,101453
2019-04-14T00:51:57.313Z,101454
2019-04-14T00:57:20.192Z,101446
2019-04-14T01:02:43.094Z,101444
2019-04-14T01:08:05.823Z,101439
2019-04-14T01:13:28.895Z,101442
2019-04-14T01:18:51.577Z,101455
2019-04-14T01:24:14.286Z,101458
2019-04-14T01:29:36.884Z,101459
2019-04-14T01:34:59.570Z,101457
2019-04-14T01:40:22.813Z,101458
2019-04-14T01:45:57.970Z,101454
2019-04-14T01:51:09.222Z,101452
2019-04-14T01:56:31.963Z,101453
2019-04-14T02:01:54.271Z,101465
2019-04-14T02:07:16.835Z,101471
2019-04-14T02:12:40.944Z,101476
2019-04-14T02:18:03.354Z,101483
2019-04-14T02:23:26.100Z,101483
2019-04-14T02:28:48.852Z,101481
2019-04-14T02:34:38.915Z,101480
2019-04-14T02:40:00.247Z,101487
2019-04-14T02:45:34.649Z,101487
2019-04-14T02:50:47.449Z,101494
2019-04-14T02:56:21.148Z,101488
2019-04-14T03:01:37.031Z,101494
2019-04-14T03:07:04.506Z,101489
2019-04-14T03:12:37.691Z,101501
2019-04-14T03:23:16.887Z,101501
2019-04-14T03:39:23.093Z,101498
2019-04-14T03:50:13.319Z,101491
2019-04-14T03:55:24.752Z,101491
2019-04-14T04:00:34.145Z,101500
2019-04-14T04:05:58.558Z,101504
2019-04-14T04:11:21.528Z,101510
2019-04-14T04:16:44.049Z,101514
2019-04-14T04:22:06.682Z,101505
2019-04-14T04:27:30.833Z,101513
2019-04-14T04:32:53.729Z,101525
2019-04-14T04:38:16.299Z,101527
2019-04-14T04:43:39.036Z,101533
2019-04-14T04:49:11.407Z,101538
2019-04-14T04:54:27.900Z,101542
2019-04-14T04:59:49.879Z,101537
2019-04-14T05:05:12.543Z,101542
2019-04-14T05:10:35.241Z,101543
2019-04-14T05:15:59.953Z,101549
2019-04-14T05:21:23.477Z,101552
2019-04-14T05:26:45.969Z,101558
2019-04-14T05:32:10.854Z,101561
2019-04-14T05:37:33.583Z,101567
2019-04-14T05:42:56.621Z,101557
2019-04-14T05:48:20.353Z,101564
2019-04-14T05:53:42.007Z,101568
2019-04-14T05:59:04.724Z,101572
2019-04-14T06:04:28.554Z,101579
2019-04-14T06:09:51.615Z,101575
2019-04-14T06:15:14.610Z,101580
2019-04-14T06:20:37.592Z,101585
2019-04-14T06:26:00.563Z,101582
2019-04-14T06:31:26.906Z,101586
2019-04-14T06:36:49.693Z,101590
2019-04-14T06:42:12.413Z,101597
2019-04-14T06:47:35.590Z,101605
2019-04-14T06:52:59.016Z,101602
2019-04-14T06:58:21.831Z,101602
2019-04-14T07:03:44.819Z,101608
2019-04-14T07:09:07.640Z,101604
2019-04-14T07:14:31.934Z,101605
2019-04-14T07:20:01.644Z,101608
2019-04-14T07:25:17.196Z,101617
2019-04-14T07:30:40.292Z,101618
2019-04-14T07:36:03.137Z,101627
2019-04-14T07:41:25.790Z,101617
2019-04-14T07:46:48.516Z,101621
2019-04-14T07:52:11.231Z,101618
2019-04-14T07:57:34.075Z,101625
2019-04-14T08:02:58.890Z,101623
2019-04-14T08:08:21.637Z,101622
2019-04-14T08:13:44.295Z,101622
2019-04-14T08:19:07.187Z,101621
2019-04-14T08:24:29.831Z,101614
2019-04-14T08:29:52.643Z,101616
2019-04-14T08:35:15.626Z,101613
2019-04-14T08:40:38.255Z,101609
2019-04-14T08:46:01.029Z,101609
2019-04-14T08:51:23.688Z,101617
2019-04-14T08:56:47.085Z,101602
2019-04-14T09:02:09.767Z,101609
2019-04-14T09:07:32.481Z,101614
2019-04-14T09:12:55.206Z,101610
2019-04-14T09:18:19.116Z,101607
2019-04-14T09:23:41.831Z,101606
2019-04-14T09:29:05.565Z,101616
2019-04-14T09:34:28.571Z,101618
2019-04-14T09:39:52.041Z,101616
2019-04-14T09:45:14.857Z,101615
2019-04-14T09:50:37.521Z,101608
2019-04-14T09:56:00.264Z,101605
2019-04-14T10:01:23.081Z,101601
2019-04-14T10:06:45.878Z,101607
2019-04-14T10:12:08.555Z,101599
2019-04-14T10:17:31.310Z,101611
2019-04-14T10:22:53.955Z,101616
2019-04-14T10:28:16.700Z,101617
2019-04-14T10:33:39.461Z,101614
2019-04-14T10:39:02.125Z,101609
2019-04-14T10:44:24.774Z,101597
2019-04-14T10:49:47.451Z,101610
2019-04-14T10:55:10.249Z,101607
2019-04-14T11:00:33.335Z,101607
2019-04-14T11:05:56.009Z,101603
2019-04-14T11:11:18.764Z,101606
2019-04-14T11:16:41.451Z,101607
2019-04-14T11:22:04.150Z,101611
2019-04-14T11:27:26.874Z,101593
2019-04-14T11:32:49.559Z,101608
2019-04-14T11:38:12.245Z,101602
2019-04-14T11:43:34.943Z,101618
2019-04-14T11:48:57.658Z,101608
2019-04-14T11:54:20.766Z,101615
2019-04-14T11:59:43.480Z,101607
2019-04-14T12:05:06.171Z,101616
2019-04-14T12:10:28.893Z,101620
2019-04-14T12:15:52.451Z,101621
2019-04-14T12:21:15.182Z,101625
2019-04-14T12:26:38.291Z,101626
2019-04-14T12:32:01.749Z,101637
2019-04-14T12:37:24.676Z,101639
2019-04-14T12:42:47.898Z,101644
2019-04-14T12:48:10.642Z,101647
2019-04-14T12:53:33.344Z,101654
2019-04-14T12:58:56.045Z,101645
2019-04-14T13:04:18.715Z,101636
2019-04-14T13:09:41.424Z,101644
2019-04-14T13:15:04.068Z,101648
2019-04-14T13:20:27.419Z,101643
2019-04-14T13:25:50.101Z,101648
2019-04-14T13:31:12.770Z,101647
2019-04-14T13:36:35.478Z,101637
2019-04-14T13:41:58.179Z,101627
2019-04-14T13:47:21.467Z,101621
2019-04-14T13:52:46.809Z,101620
2019-04-14T13:58:06.856Z,101618
2019-04-14T14:03:29.500Z,101626
2019-04-14T14:08:52.160Z,101623
2019-04-14T14:14:14.798Z,101621
2019-04-14T14:19:38.257Z,101605
2019-04-14T14:25:00.901Z,101604
2019-04-14T14:30:23.604Z,101600
2019-04-14T14:35:46.264Z,101605
2019-04-14T14:41:08.986Z,101608
2019-04-14T14:46:33.385Z,101603
2019-04-14T14:51:57.118Z,101603
2019-04-14T14:57:19.835Z,101599
2019-04-14T15:02:43.442Z,101600
2019-04-14T15:08:06.192Z,101598
2019-04-14T15:13:29.560Z,101598
2019-04-14T15:18:52.313Z,101593
2019-04-14T15:24:15.369Z,101596
2019-04-14T15:29:38.071Z,101603
2019-04-14T15:35:00.838Z,101598
2019-04-14T15:40:23.530Z,101598
2019-04-14T15:45:46.274Z,101601
2019-04-14T15:51:08.990Z,101601
2019-04-14T15:56:31.777Z,101610
2019-04-14T16:01:54.545Z,101605
2019-04-14T16:07:17.313Z,101618
2019-04-14T16:12:39.976Z,101623
2019-04-14T16:18:03.767Z,101627
2019-04-14T16:23:26.428Z,101630
2019-04-14T16:28:49.157Z,101636
2019-04-14T16:34:11.779Z,101641
2019-04-14T16:39:34.453Z,101644
2019-04-14T16:44:58.073Z,101650
2019-04-14T16:50:21.931Z,101655
2019-04-14T16:55:44.587Z,101663
2019-04-14T17:01:07.186Z,101671
2019-04-14T17:06:29.886Z,101672
2019-04-14T17:11:53.351Z,101690
2019-04-14T17:17:16.965Z,101689
2019-04-14T17:22:39.641Z,101689
2019-04-14T17:28:02.257Z,101697
2019-04-14T17:33:25.770Z,101702
2019-04-14T17:38:48.414Z,101707
2019-04-14T17:44:12.065Z,101714
2019-04-14T17:49:34.688Z,101713
2019-04-14T17:54:57.356Z,101720
2019-04-14T18:00:19.981Z,101719
2019-04-14T18:05:44.531Z,101730
2019-04-14T18:11:07.183Z,101743
2019-04-14T18:16:30.001Z,101744
2019-04-14T18:21:52.752Z,101742
2019-04-14T18:27:15.386Z,101750
2019-04-14T18:32:39.897Z,101753
2019-04-14T18:38:02.556Z,101760
2019-04-14T18:43:25.323Z,101772
2019-04-14T18:48:48.092Z,101768
2019-04-14T18:54:11.831Z,101779
2019-04-14T18:59:34.555Z,101777
2019-04-14T19:04:57.443Z,101780
2019-04-14T19:10:20.188Z,101778
2019-04-14T19:15:46.363Z,101787
2019-04-14T19:21:09.131Z,101785
2019-04-14T19:26:32.481Z,101781
2019-04-14T19:31:55.222Z,101785
2019-04-14T19:37:18.033Z,101788
2019-04-14T19:42:41.578Z,101788
2019-04-14T19:48:04.287Z,101786
2019-04-14T19:53:27.012Z,101787
2019-04-14T19:58:49.754Z,101781
2019-04-14T20:04:12.479Z,101782
2019-04-14T20:09:36.629Z,101783
2019-04-14T20:14:59.786Z,101786
2019-04-14T20:20:22.568Z,101795
2019-04-14T20:25:45.324Z,101798
2019-04-14T20:31:08.053Z,101800
2019-04-14T20:36:30.814Z,101800
2019-04-14T20:41:53.556Z,101806
2019-04-14T20:47:16.342Z,101816
2019-04-14T20:52:39.103Z,101815
2019-04-14T20:58:01.808Z,101818
2019-04-14T21:03:24.518Z,101818
2019-04-14T21:08:47.261Z,101822
2019-04-14T21:14:09.959Z,101827
2019-04-14T21:19:32.713Z,101828
2019-04-14T21:24:55.500Z,101828
2019-04-14T21:30:18.175Z,101835
2019-04-14T21:35:41.587Z,101841
2019-04-14T21:41:04.285Z,101841
2019-04-14T21:46:27.952Z,101844
2019-04-14T21:51:51.415Z,101849
2019-04-14T21:57:15.163Z,101852
2019-04-14T22:02:37.869Z,101846
2019-04-14T22:08:00.644Z,101847
2019-04-14T22:13:23.382Z,101854
2019-04-14T22:18:46.077Z,101857
2019-04-14T22:24:08.802Z,101855
2019-04-14T22:29:31.485Z,101852
2019-04-14T22:34:54.158Z,101835
2019-04-14T22:40:16.889Z,101831
2019-04-14T22:45:40.540Z,101829
2019-04-14T22:51:03.203Z,101829
2019-04-14T22:56:38.177Z,101829
2019-04-14T23:01:49.624Z,101822
2019-04-14T23:07:12.409Z,101828
2019-04-14T23:12:35.063Z,101822
2019-04-14T23:17:57.806Z,101819
2019-04-14T23:23:20.519Z,101818
2019-04-14T23:28:43.986Z,101822
2019-04-14T23:34:06.702Z,101819
2019-04-14T23:39:29.435Z,101816
2019-04-14T23:44:52.102Z,101812
2019-04-14T23:50:14.829Z,101804
2019-04-14T23:55:37.491Z,101804
